sensor_id;sensor_type;location;lat;lon;timestamp;P1;durP1;ratioP1;P2;durP2;ratioP2
59366;SDS011;45163;47.690;11.770;2023-04-06T00:02:14;11.53;;;6.80;;
59366;SDS011;45163;47.690;11.770;2023-04-06T00:04:40;8.50;;;6.53;;
59366;SDS011;45163;47.690;11.770;2023-04-06T00:07:06;10.50;;;6.80;;
59366;SDS011;45163;47.690;11.770;2023-04-06T00:09:33;10.23;;;7.33;;
59366;SDS011;45163;47.690;11.770;2023-04-06T00:11:59;10.13;;;5.63;;
59366;SDS011;45163;47.690;11.770;2023-04-06T00:14:25;7.87;;;4.83;;
59366;SDS011;45163;47.690;11.770;2023-04-06T00:16:51;8.33;;;5.07;;
59366;SDS011;45163;47.690;11.770;2023-04-06T00:19:17;20.90;;;11.67;;
59366;SDS011;45163;47.690;11.770;2023-04-06T00:21:43;25.80;;;14.40;;
59366;SDS011;45163;47.690;11.770;2023-04-06T00:24:10;15.63;;;8.67;;
59366;SDS011;45163;47.690;11.770;2023-04-06T00:26:36;8.23;;;5.60;;
59366;SDS011;45163;47.690;11.770;2023-04-06T00:29:02;22.57;;;14.03;;
59366;SDS011;45163;47.690;11.770;2023-04-06T00:31:28;12.43;;;8.53;;
59366;SDS011;45163;47.690;11.770;2023-04-06T00:33:54;7.20;;;5.33;;
59366;SDS011;45163;47.690;11.770;2023-04-06T00:36:20;7.00;;;5.67;;
59366;SDS011;45163;47.690;11.770;2023-04-06T00:38:46;15.87;;;8.70;;
59366;SDS011;45163;47.690;11.770;2023-04-06T00:41:12;43.80;;;17.60;;
59366;SDS011;45163;47.690;11.770;2023-04-06T00:43:38;30.17;;;12.10;;
59366;SDS011;45163;47.690;11.770;2023-04-06T00:46:04;35.23;;;14.00;;
59366;SDS011;45163;47.690;11.770;2023-04-06T00:48:31;24.03;;;10.20;;
59366;SDS011;45163;47.690;11.770;2023-04-06T00:50:58;15.57;;;8.00;;
59366;SDS011;45163;47.690;11.770;2023-04-06T00:53:24;9.07;;;5.53;;
59366;SDS011;45163;47.690;11.770;2023-04-06T00:55:51;9.90;;;5.67;;
59366;SDS011;45163;47.690;11.770;2023-04-06T00:58:17;8.57;;;6.03;;
59366;SDS011;45163;47.690;11.770;2023-04-06T01:00:43;8.40;;;6.07;;
59366;SDS011;45163;47.690;11.770;2023-04-06T01:03:09;8.70;;;5.00;;
59366;SDS011;45163;47.690;11.770;2023-04-06T01:05:35;7.57;;;5.13;;
59366;SDS011;45163;47.690;11.770;2023-04-06T01:08:06;7.73;;;5.73;;
59366;SDS011;45163;47.690;11.770;2023-04-06T01:10:33;6.73;;;4.90;;
59366;SDS011;45163;47.690;11.770;2023-04-06T01:12:59;8.33;;;5.20;;
59366;SDS011;45163;47.690;11.770;2023-04-06T01:15:25;6.80;;;4.80;;
59366;SDS011;45163;47.690;11.770;2023-04-06T01:17:51;8.53;;;4.73;;
59366;SDS011;45163;47.690;11.770;2023-04-06T01:20:17;6.73;;;5.10;;
59366;SDS011;45163;47.690;11.770;2023-04-06T01:22:43;7.20;;;5.00;;
59366;SDS011;45163;47.690;11.770;2023-04-06T01:25:10;7.53;;;4.83;;
59366;SDS011;45163;47.690;11.770;2023-04-06T01:27:36;6.00;;;4.73;;
59366;SDS011;45163;47.690;11.770;2023-04-06T01:30:02;7.60;;;4.93;;
59366;SDS011;45163;47.690;11.770;2023-04-06T01:32:28;5.77;;;4.33;;
59366;SDS011;45163;47.690;11.770;2023-04-06T01:34:54;7.97;;;5.03;;
59366;SDS011;45163;47.690;11.770;2023-04-06T01:37:20;5.90;;;4.80;;
59366;SDS011;45163;47.690;11.770;2023-04-06T01:39:47;7.87;;;4.93;;
59366;SDS011;45163;47.690;11.770;2023-04-06T01:42:12;6.83;;;5.30;;
59366;SDS011;45163;47.690;11.770;2023-04-06T01:44:38;12.43;;;5.07;;
59366;SDS011;45163;47.690;11.770;2023-04-06T01:47:05;8.57;;;4.80;;
59366;SDS011;45163;47.690;11.770;2023-04-06T01:49:31;7.00;;;4.53;;
59366;SDS011;45163;47.690;11.770;2023-04-06T01:51:57;8.83;;;5.17;;
59366;SDS011;45163;47.690;11.770;2023-04-06T01:54:23;11.40;;;5.50;;
59366;SDS011;45163;47.690;11.770;2023-04-06T01:56:49;8.40;;;5.57;;
59366;SDS011;45163;47.690;11.770;2023-04-06T01:59:17;8.17;;;4.93;;
59366;SDS011;45163;47.690;11.770;2023-04-06T02:01:42;8.53;;;5.07;;
59366;SDS011;45163;47.690;11.770;2023-04-06T02:04:08;6.73;;;5.13;;
59366;SDS011;45163;47.690;11.770;2023-04-06T02:06:34;10.23;;;5.17;;
59366;SDS011;45163;47.690;11.770;2023-04-06T02:09:01;7.97;;;5.37;;
59366;SDS011;45163;47.690;11.770;2023-04-06T02:11:27;9.83;;;5.80;;
59366;SDS011;45163;47.690;11.770;2023-04-06T02:13:53;9.60;;;6.37;;
59366;SDS011;45163;47.690;11.770;2023-04-06T02:16:20;5.87;;;5.03;;
59366;SDS011;45163;47.690;11.770;2023-04-06T02:18:46;9.33;;;5.30;;
59366;SDS011;45163;47.690;11.770;2023-04-06T02:21:12;7.93;;;5.50;;
59366;SDS011;45163;47.690;11.770;2023-04-06T02:23:38;11.27;;;5.60;;
59366;SDS011;45163;47.690;11.770;2023-04-06T02:26:04;6.33;;;5.00;;
59366;SDS011;45163;47.690;11.770;2023-04-06T02:28:30;6.30;;;5.03;;
59366;SDS011;45163;47.690;11.770;2023-04-06T02:30:56;9.33;;;5.40;;
59366;SDS011;45163;47.690;11.770;2023-04-06T02:33:22;9.03;;;5.73;;
59366;SDS011;45163;47.690;11.770;2023-04-06T02:35:48;6.87;;;4.97;;
59366;SDS011;45163;47.690;11.770;2023-04-06T02:38:14;9.57;;;5.00;;
59366;SDS011;45163;47.690;11.770;2023-04-06T02:40:40;7.83;;;5.37;;
59366;SDS011;45163;47.690;11.770;2023-04-06T02:43:06;7.00;;;5.20;;
59366;SDS011;45163;47.690;11.770;2023-04-06T02:45:32;11.00;;;5.10;;
59366;SDS011;45163;47.690;11.770;2023-04-06T02:47:58;10.43;;;5.53;;
59366;SDS011;45163;47.690;11.770;2023-04-06T02:50:24;7.60;;;5.80;;
59366;SDS011;45163;47.690;11.770;2023-04-06T02:52:52;6.00;;;4.97;;
59366;SDS011;45163;47.690;11.770;2023-04-06T02:55:18;9.13;;;5.63;;
59366;SDS011;45163;47.690;11.770;2023-04-06T02:57:45;8.83;;;5.63;;
59366;SDS011;45163;47.690;11.770;2023-04-06T03:00:11;9.07;;;5.60;;
59366;SDS011;45163;47.690;11.770;2023-04-06T03:02:38;8.67;;;5.57;;
59366;SDS011;45163;47.690;11.770;2023-04-06T03:05:04;6.87;;;5.00;;
59366;SDS011;45163;47.690;11.770;2023-04-06T03:07:30;7.00;;;4.73;;
59366;SDS011;45163;47.690;11.770;2023-04-06T03:09:56;9.17;;;5.50;;
59366;SDS011;45163;47.690;11.770;2023-04-06T03:12:22;12.87;;;5.33;;
59366;SDS011;45163;47.690;11.770;2023-04-06T03:14:48;11.30;;;5.80;;
59366;SDS011;45163;47.690;11.770;2023-04-06T03:17:14;8.70;;;5.47;;
59366;SDS011;45163;47.690;11.770;2023-04-06T03:19:40;6.40;;;5.60;;
59366;SDS011;45163;47.690;11.770;2023-04-06T03:22:06;8.10;;;5.90;;
59366;SDS011;45163;47.690;11.770;2023-04-06T03:24:32;11.10;;;5.93;;
59366;SDS011;45163;47.690;11.770;2023-04-06T03:26:58;9.00;;;5.77;;
59366;SDS011;45163;47.690;11.770;2023-04-06T03:29:24;8.70;;;5.10;;
59366;SDS011;45163;47.690;11.770;2023-04-06T03:31:50;7.63;;;5.33;;
59366;SDS011;45163;47.690;11.770;2023-04-06T03:34:16;8.30;;;5.10;;
59366;SDS011;45163;47.690;11.770;2023-04-06T03:36:42;8.20;;;5.50;;
59366;SDS011;45163;47.690;11.770;2023-04-06T03:39:08;7.43;;;5.43;;
59366;SDS011;45163;47.690;11.770;2023-04-06T03:41:34;7.93;;;5.57;;
59366;SDS011;45163;47.690;11.770;2023-04-06T03:44:00;8.00;;;5.33;;
59366;SDS011;45163;47.690;11.770;2023-04-06T03:46:31;10.70;;;5.83;;
59366;SDS011;45163;47.690;11.770;2023-04-06T03:48:57;12.70;;;5.80;;
59366;SDS011;45163;47.690;11.770;2023-04-06T03:51:23;7.40;;;5.67;;
59366;SDS011;45163;47.690;11.770;2023-04-06T03:53:49;9.67;;;5.40;;
59366;SDS011;45163;47.690;11.770;2023-04-06T03:56:15;7.17;;;5.07;;
59366;SDS011;45163;47.690;11.770;2023-04-06T03:58:41;8.87;;;5.67;;
59366;SDS011;45163;47.690;11.770;2023-04-06T04:01:07;7.77;;;5.50;;
59366;SDS011;45163;47.690;11.770;2023-04-06T04:03:33;8.47;;;5.00;;
59366;SDS011;45163;47.690;11.770;2023-04-06T04:05:59;8.17;;;6.00;;
59366;SDS011;45163;47.690;11.770;2023-04-06T04:08:25;9.77;;;6.63;;
59366;SDS011;45163;47.690;11.770;2023-04-06T04:10:51;9.57;;;6.10;;
59366;SDS011;45163;47.690;11.770;2023-04-06T04:13:17;7.30;;;5.53;;
59366;SDS011;45163;47.690;11.770;2023-04-06T04:15:44;8.60;;;5.93;;
59366;SDS011;45163;47.690;11.770;2023-04-06T04:18:10;7.17;;;5.33;;
59366;SDS011;45163;47.690;11.770;2023-04-06T04:20:38;8.97;;;5.77;;
59366;SDS011;45163;47.690;11.770;2023-04-06T04:23:05;7.90;;;5.60;;
59366;SDS011;45163;47.690;11.770;2023-04-06T04:25:31;10.10;;;5.97;;
59366;SDS011;45163;47.690;11.770;2023-04-06T04:27:57;8.80;;;5.50;;
59366;SDS011;45163;47.690;11.770;2023-04-06T04:30:23;7.87;;;5.17;;
59366;SDS011;45163;47.690;11.770;2023-04-06T04:32:49;11.47;;;5.90;;
59366;SDS011;45163;47.690;11.770;2023-04-06T04:35:15;11.20;;;5.77;;
59366;SDS011;45163;47.690;11.770;2023-04-06T04:37:41;11.57;;;5.50;;
59366;SDS011;45163;47.690;11.770;2023-04-06T04:40:07;9.00;;;5.17;;
59366;SDS011;45163;47.690;11.770;2023-04-06T04:42:34;9.00;;;6.37;;
59366;SDS011;45163;47.690;11.770;2023-04-06T04:45:00;11.57;;;6.33;;
59366;SDS011;45163;47.690;11.770;2023-04-06T04:47:26;10.33;;;5.67;;
59366;SDS011;45163;47.690;11.770;2023-04-06T04:49:52;8.33;;;5.40;;
59366;SDS011;45163;47.690;11.770;2023-04-06T04:52:18;9.07;;;5.37;;
59366;SDS011;45163;47.690;11.770;2023-04-06T04:54:44;8.17;;;5.27;;
59366;SDS011;45163;47.690;11.770;2023-04-06T04:57:12;8.03;;;5.43;;
59366;SDS011;45163;47.690;11.770;2023-04-06T04:59:38;7.57;;;5.50;;
59366;SDS011;45163;47.690;11.770;2023-04-06T05:02:04;8.90;;;5.20;;
59366;SDS011;45163;47.690;11.770;2023-04-06T05:04:30;7.57;;;5.30;;
59366;SDS011;45163;47.690;11.770;2023-04-06T05:07:06;9.53;;;5.20;;
59366;SDS011;45163;47.690;11.770;2023-04-06T05:09:32;7.20;;;5.37;;
59366;SDS011;45163;47.690;11.770;2023-04-06T05:11:59;9.83;;;5.70;;
59366;SDS011;45163;47.690;11.770;2023-04-06T05:14:28;8.63;;;5.50;;
59366;SDS011;45163;47.690;11.770;2023-04-06T05:16:55;8.03;;;4.87;;
59366;SDS011;45163;47.690;11.770;2023-04-06T05:19:21;11.57;;;5.63;;
59366;SDS011;45163;47.690;11.770;2023-04-06T05:21:47;7.67;;;5.30;;
59366;SDS011;45163;47.690;11.770;2023-04-06T05:24:13;10.47;;;5.53;;
59366;SDS011;45163;47.690;11.770;2023-04-06T05:26:39;8.40;;;5.37;;
59366;SDS011;45163;47.690;11.770;2023-04-06T05:29:05;11.90;;;5.63;;
59366;SDS011;45163;47.690;11.770;2023-04-06T05:31:32;11.03;;;5.70;;
59366;SDS011;45163;47.690;11.770;2023-04-06T05:33:58;9.90;;;5.50;;
59366;SDS011;45163;47.690;11.770;2023-04-06T05:36:24;8.20;;;5.30;;
59366;SDS011;45163;47.690;11.770;2023-04-06T05:38:50;10.93;;;5.67;;
59366;SDS011;45163;47.690;11.770;2023-04-06T05:41:18;10.07;;;5.57;;
59366;SDS011;45163;47.690;11.770;2023-04-06T05:43:44;15.50;;;7.07;;
59366;SDS011;45163;47.690;11.770;2023-04-06T05:46:10;13.67;;;7.20;;
59366;SDS011;45163;47.690;11.770;2023-04-06T05:48:36;13.40;;;6.20;;
59366;SDS011;45163;47.690;11.770;2023-04-06T05:51:02;15.40;;;6.77;;
59366;SDS011;45163;47.690;11.770;2023-04-06T05:53:31;11.40;;;5.90;;
59366;SDS011;45163;47.690;11.770;2023-04-06T05:56:01;8.97;;;5.93;;
59366;SDS011;45163;47.690;11.770;2023-04-06T05:58:28;16.13;;;6.00;;
59366;SDS011;45163;47.690;11.770;2023-04-06T06:00:58;9.60;;;5.33;;
59366;SDS011;45163;47.690;11.770;2023-04-06T06:03:25;9.40;;;5.17;;
59366;SDS011;45163;47.690;11.770;2023-04-06T06:05:51;7.47;;;5.07;;
59366;SDS011;45163;47.690;11.770;2023-04-06T06:08:17;8.57;;;5.17;;
59366;SDS011;45163;47.690;11.770;2023-04-06T06:10:43;8.60;;;4.57;;
59366;SDS011;45163;47.690;11.770;2023-04-06T06:13:09;7.23;;;4.70;;
59366;SDS011;45163;47.690;11.770;2023-04-06T06:15:35;9.47;;;4.57;;
59366;SDS011;45163;47.690;11.770;2023-04-06T06:18:01;7.77;;;4.53;;
59366;SDS011;45163;47.690;11.770;2023-04-06T06:20:27;5.47;;;4.60;;
59366;SDS011;45163;47.690;11.770;2023-04-06T06:22:53;10.47;;;5.00;;
59366;SDS011;45163;47.690;11.770;2023-04-06T06:25:19;8.17;;;4.70;;
59366;SDS011;45163;47.690;11.770;2023-04-06T06:27:46;7.70;;;4.90;;
59366;SDS011;45163;47.690;11.770;2023-04-06T06:30:12;6.17;;;4.17;;
59366;SDS011;45163;47.690;11.770;2023-04-06T06:32:39;6.57;;;4.20;;
59366;SDS011;45163;47.690;11.770;2023-04-06T06:35:05;6.73;;;4.40;;
59366;SDS011;45163;47.690;11.770;2023-04-06T06:37:31;5.70;;;3.93;;
59366;SDS011;45163;47.690;11.770;2023-04-06T06:39:57;9.63;;;5.30;;
59366;SDS011;45163;47.690;11.770;2023-04-06T06:42:23;6.87;;;4.27;;
59366;SDS011;45163;47.690;11.770;2023-04-06T06:44:49;6.03;;;3.60;;
59366;SDS011;45163;47.690;11.770;2023-04-06T06:47:15;6.57;;;3.80;;
59366;SDS011;45163;47.690;11.770;2023-04-06T06:49:41;4.97;;;3.60;;
59366;SDS011;45163;47.690;11.770;2023-04-06T06:52:07;8.57;;;4.37;;
59366;SDS011;45163;47.690;11.770;2023-04-06T06:54:33;6.97;;;3.90;;
59366;SDS011;45163;47.690;11.770;2023-04-06T06:56:59;6.57;;;3.77;;
59366;SDS011;45163;47.690;11.770;2023-04-06T06:59:26;6.47;;;4.03;;
59366;SDS011;45163;47.690;11.770;2023-04-06T07:01:52;6.73;;;3.80;;
59366;SDS011;45163;47.690;11.770;2023-04-06T07:04:18;6.30;;;4.10;;
59366;SDS011;45163;47.690;11.770;2023-04-06T07:06:44;6.27;;;4.30;;
59366;SDS011;45163;47.690;11.770;2023-04-06T07:09:10;7.20;;;3.60;;
59366;SDS011;45163;47.690;11.770;2023-04-06T07:11:36;6.03;;;3.73;;
59366;SDS011;45163;47.690;11.770;2023-04-06T07:14:05;6.93;;;4.27;;
59366;SDS011;45163;47.690;11.770;2023-04-06T07:16:31;4.77;;;3.73;;
59366;SDS011;45163;47.690;11.770;2023-04-06T07:18:57;6.70;;;4.03;;
59366;SDS011;45163;47.690;11.770;2023-04-06T07:21:23;6.13;;;3.90;;
59366;SDS011;45163;47.690;11.770;2023-04-06T07:23:49;13.37;;;4.20;;
59366;SDS011;45163;47.690;11.770;2023-04-06T07:26:16;8.03;;;3.80;;
59366;SDS011;45163;47.690;11.770;2023-04-06T07:28:42;8.53;;;4.30;;
59366;SDS011;45163;47.690;11.770;2023-04-06T07:31:08;5.47;;;3.63;;
59366;SDS011;45163;47.690;11.770;2023-04-06T07:33:34;8.20;;;4.13;;
59366;SDS011;45163;47.690;11.770;2023-04-06T07:36:00;5.63;;;3.90;;
59366;SDS011;45163;47.690;11.770;2023-04-06T07:38:26;8.40;;;4.20;;
59366;SDS011;45163;47.690;11.770;2023-04-06T07:40:52;9.63;;;3.77;;
59366;SDS011;45163;47.690;11.770;2023-04-06T07:43:18;5.30;;;3.93;;
59366;SDS011;45163;47.690;11.770;2023-04-06T07:45:44;5.30;;;3.80;;
59366;SDS011;45163;47.690;11.770;2023-04-06T07:48:10;8.17;;;3.90;;
59366;SDS011;45163;47.690;11.770;2023-04-06T07:50:36;5.90;;;3.93;;
59366;SDS011;45163;47.690;11.770;2023-04-06T07:53:03;6.83;;;4.23;;
59366;SDS011;45163;47.690;11.770;2023-04-06T07:55:29;8.60;;;3.97;;
59366;SDS011;45163;47.690;11.770;2023-04-06T07:57:55;4.40;;;3.77;;
59366;SDS011;45163;47.690;11.770;2023-04-06T08:00:22;6.30;;;4.27;;
59366;SDS011;45163;47.690;11.770;2023-04-06T08:02:48;6.07;;;4.23;;
59366;SDS011;45163;47.690;11.770;2023-04-06T08:05:14;5.33;;;4.20;;
59366;SDS011;45163;47.690;11.770;2023-04-06T08:07:40;8.77;;;4.50;;
59366;SDS011;45163;47.690;11.770;2023-04-06T08:10:07;5.20;;;4.27;;
59366;SDS011;45163;47.690;11.770;2023-04-06T08:12:34;7.27;;;4.17;;
59366;SDS011;45163;47.690;11.770;2023-04-06T08:15:00;5.33;;;3.90;;
59366;SDS011;45163;47.690;11.770;2023-04-06T08:17:28;9.27;;;4.20;;
59366;SDS011;45163;47.690;11.770;2023-04-06T08:19:55;6.30;;;4.60;;
59366;SDS011;45163;47.690;11.770;2023-04-06T08:22:21;5.23;;;4.50;;
59366;SDS011;45163;47.690;11.770;2023-04-06T08:24:47;10.80;;;4.50;;
59366;SDS011;45163;47.690;11.770;2023-04-06T08:27:13;7.53;;;4.70;;
59366;SDS011;45163;47.690;11.770;2023-04-06T08:29:40;6.63;;;4.40;;
59366;SDS011;45163;47.690;11.770;2023-04-06T08:32:06;7.00;;;5.00;;
59366;SDS011;45163;47.690;11.770;2023-04-06T08:34:32;5.90;;;4.47;;
59366;SDS011;45163;47.690;11.770;2023-04-06T08:36:59;8.03;;;4.83;;
59366;SDS011;45163;47.690;11.770;2023-04-06T08:39:26;10.57;;;4.43;;
59366;SDS011;45163;47.690;11.770;2023-04-06T08:41:53;9.77;;;4.50;;
59366;SDS011;45163;47.690;11.770;2023-04-06T08:44:22;9.47;;;4.83;;
59366;SDS011;45163;47.690;11.770;2023-04-06T08:46:48;7.63;;;4.83;;
59366;SDS011;45163;47.690;11.770;2023-04-06T08:49:16;9.87;;;5.40;;
59366;SDS011;45163;47.690;11.770;2023-04-06T08:51:42;5.47;;;4.73;;
59366;SDS011;45163;47.690;11.770;2023-04-06T08:54:09;6.27;;;4.57;;
59366;SDS011;45163;47.690;11.770;2023-04-06T08:56:37;6.60;;;4.83;;
59366;SDS011;45163;47.690;11.770;2023-04-06T08:59:05;5.20;;;4.70;;
59366;SDS011;45163;47.690;11.770;2023-04-06T09:01:33;7.67;;;5.30;;
59366;SDS011;45163;47.690;11.770;2023-04-06T09:04:04;7.57;;;5.00;;
59366;SDS011;45163;47.690;11.770;2023-04-06T09:06:35;8.37;;;4.33;;
59366;SDS011;45163;47.690;11.770;2023-04-06T09:09:02;6.63;;;5.20;;
59366;SDS011;45163;47.690;11.770;2023-04-06T09:11:29;5.23;;;4.50;;
59366;SDS011;45163;47.690;11.770;2023-04-06T09:14:06;6.90;;;4.53;;
59366;SDS011;45163;47.690;11.770;2023-04-06T09:16:38;6.43;;;4.73;;
59366;SDS011;45163;47.690;11.770;2023-04-06T09:19:06;5.83;;;4.07;;
59366;SDS011;45163;47.690;11.770;2023-04-06T09:21:32;6.53;;;4.63;;
59366;SDS011;45163;47.690;11.770;2023-04-06T09:23:59;8.53;;;4.53;;
59366;SDS011;45163;47.690;11.770;2023-04-06T09:26:26;5.63;;;4.50;;
59366;SDS011;45163;47.690;11.770;2023-04-06T09:28:56;7.33;;;4.60;;
59366;SDS011;45163;47.690;11.770;2023-04-06T09:31:24;4.97;;;4.47;;
59366;SDS011;45163;47.690;11.770;2023-04-06T09:33:52;6.57;;;4.43;;
59366;SDS011;45163;47.690;11.770;2023-04-06T09:36:19;5.67;;;4.57;;
59366;SDS011;45163;47.690;11.770;2023-04-06T09:41:29;5.83;;;4.47;;
59366;SDS011;45163;47.690;11.770;2023-04-06T09:46:34;6.83;;;3.80;;
59366;SDS011;45163;47.690;11.770;2023-04-06T09:49:04;5.93;;;3.87;;
59366;SDS011;45163;47.690;11.770;2023-04-06T09:51:38;4.53;;;3.93;;
59366;SDS011;45163;47.690;11.770;2023-04-06T09:54:05;5.83;;;4.13;;
59366;SDS011;45163;47.690;11.770;2023-04-06T10:02:06;6.33;;;4.30;;
59366;SDS011;45163;47.690;11.770;2023-04-06T10:04:43;4.40;;;4.00;;
59366;SDS011;45163;47.690;11.770;2023-04-06T10:07:20;4.53;;;3.93;;
59366;SDS011;45163;47.690;11.770;2023-04-06T10:09:46;6.07;;;4.10;;
59366;SDS011;45163;47.690;11.770;2023-04-06T10:12:14;7.97;;;4.20;;
59366;SDS011;45163;47.690;11.770;2023-04-06T10:14:40;5.87;;;4.67;;
59366;SDS011;45163;47.690;11.770;2023-04-06T10:17:08;4.90;;;4.40;;
59366;SDS011;45163;47.690;11.770;2023-04-06T10:19:52;5.70;;;4.07;;
59366;SDS011;45163;47.690;11.770;2023-04-06T10:22:29;5.10;;;4.40;;
59366;SDS011;45163;47.690;11.770;2023-04-06T10:25:35;5.30;;;4.50;;
59366;SDS011;45163;47.690;11.770;2023-04-06T10:28:06;5.93;;;4.93;;
59366;SDS011;45163;47.690;11.770;2023-04-06T10:30:33;8.20;;;5.00;;
59366;SDS011;45163;47.690;11.770;2023-04-06T10:33:12;5.20;;;4.70;;
59366;SDS011;45163;47.690;11.770;2023-04-06T10:35:39;8.07;;;5.17;;
59366;SDS011;45163;47.690;11.770;2023-04-06T10:38:05;8.77;;;5.30;;
59366;SDS011;45163;47.690;11.770;2023-04-06T10:40:31;6.77;;;4.63;;
59366;SDS011;45163;47.690;11.770;2023-04-06T10:43:19;6.83;;;4.70;;
59366;SDS011;45163;47.690;11.770;2023-04-06T10:45:57;6.43;;;4.63;;
59366;SDS011;45163;47.690;11.770;2023-04-06T10:48:36;5.17;;;4.30;;
59366;SDS011;45163;47.690;11.770;2023-04-06T10:51:07;5.73;;;4.57;;
59366;SDS011;45163;47.690;11.770;2023-04-06T10:53:47;6.80;;;4.30;;
59366;SDS011;45163;47.690;11.770;2023-04-06T10:56:14;5.47;;;4.50;;
59366;SDS011;45163;47.690;11.770;2023-04-06T10:58:45;7.17;;;4.83;;
59366;SDS011;45163;47.690;11.770;2023-04-06T11:01:16;6.17;;;4.27;;
59366;SDS011;45163;47.690;11.770;2023-04-06T11:03:43;4.40;;;3.83;;
59366;SDS011;45163;47.690;11.770;2023-04-06T11:06:11;5.28;;;4.20;;
59366;SDS011;45163;47.690;11.770;2023-04-06T11:08:43;4.90;;;4.23;;
59366;SDS011;45163;47.690;11.770;2023-04-06T11:11:10;8.67;;;4.30;;
59366;SDS011;45163;47.690;11.770;2023-04-06T11:13:49;7.83;;;4.30;;
59366;SDS011;45163;47.690;11.770;2023-04-06T11:16:22;4.90;;;3.90;;
59366;SDS011;45163;47.690;11.770;2023-04-06T11:19:07;5.37;;;4.40;;
59366;SDS011;45163;47.690;11.770;2023-04-06T11:26:46;6.10;;;4.97;;
59366;SDS011;45163;47.690;11.770;2023-04-06T11:29:20;5.97;;;5.13;;
59366;SDS011;45163;47.690;11.770;2023-04-06T11:31:48;6.97;;;5.17;;
59366;SDS011;45163;47.690;11.770;2023-04-06T11:34:20;6.47;;;4.90;;
59366;SDS011;45163;47.690;11.770;2023-04-06T11:36:48;5.90;;;5.03;;
59366;SDS011;45163;47.690;11.770;2023-04-06T11:39:19;9.00;;;4.60;;
59366;SDS011;45163;47.690;11.770;2023-04-06T11:41:50;5.50;;;4.40;;
59366;SDS011;45163;47.690;11.770;2023-04-06T11:44:35;5.63;;;4.80;;
59366;SDS011;45163;47.690;11.770;2023-04-06T11:47:27;5.53;;;4.63;;
59366;SDS011;45163;47.690;11.770;2023-04-06T11:49:54;10.30;;;4.47;;
59366;SDS011;45163;47.690;11.770;2023-04-06T11:52:23;5.50;;;4.43;;
59366;SDS011;45163;47.690;11.770;2023-04-06T11:54:51;4.47;;;4.07;;
59366;SDS011;45163;47.690;11.770;2023-04-06T11:57:18;7.70;;;5.27;;
59366;SDS011;45163;47.690;11.770;2023-04-06T11:59:46;5.27;;;4.77;;
59366;SDS011;45163;47.690;11.770;2023-04-06T12:02:15;5.13;;;4.27;;
59366;SDS011;45163;47.690;11.770;2023-04-06T12:04:41;6.43;;;4.77;;
59366;SDS011;45163;47.690;11.770;2023-04-06T12:07:07;4.50;;;4.00;;
59366;SDS011;45163;47.690;11.770;2023-04-06T12:09:33;4.70;;;4.20;;
59366;SDS011;45163;47.690;11.770;2023-04-06T12:12:00;5.00;;;4.07;;
59366;SDS011;45163;47.690;11.770;2023-04-06T12:14:26;4.97;;;4.13;;
59366;SDS011;45163;47.690;11.770;2023-04-06T12:16:52;5.00;;;4.27;;
59366;SDS011;45163;47.690;11.770;2023-04-06T12:19:18;9.10;;;4.60;;
59366;SDS011;45163;47.690;11.770;2023-04-06T12:21:44;5.23;;;4.50;;
59366;SDS011;45163;47.690;11.770;2023-04-06T12:24:10;5.03;;;4.43;;
59366;SDS011;45163;47.690;11.770;2023-04-06T12:26:36;5.90;;;4.17;;
59366;SDS011;45163;47.690;11.770;2023-04-06T12:29:03;6.63;;;4.23;;
59366;SDS011;45163;47.690;11.770;2023-04-06T12:31:33;8.23;;;4.22;;
59366;SDS011;45163;47.690;11.770;2023-04-06T12:34:02;7.43;;;4.10;;
59366;SDS011;45163;47.690;11.770;2023-04-06T12:36:28;4.60;;;4.03;;
59366;SDS011;45163;47.690;11.770;2023-04-06T12:38:55;5.38;;;4.00;;
59366;SDS011;45163;47.690;11.770;2023-04-06T12:41:21;3.80;;;3.40;;
59366;SDS011;45163;47.690;11.770;2023-04-06T12:43:48;6.25;;;3.97;;
59366;SDS011;45163;47.690;11.770;2023-04-06T12:46:15;4.25;;;3.85;;
59366;SDS011;45163;47.690;11.770;2023-04-06T12:48:41;4.20;;;3.60;;
59366;SDS011;45163;47.690;11.770;2023-04-06T12:51:07;4.50;;;3.47;;
59366;SDS011;45163;47.690;11.770;2023-04-06T12:53:33;5.20;;;3.88;;
59366;SDS011;45163;47.690;11.770;2023-04-06T12:56:01;5.27;;;3.93;;
59366;SDS011;45163;47.690;11.770;2023-04-06T12:58:28;4.17;;;3.77;;
59366;SDS011;45163;47.690;11.770;2023-04-06T13:00:55;6.43;;;4.00;;
59366;SDS011;45163;47.690;11.770;2023-04-06T13:03:23;6.30;;;3.93;;
59366;SDS011;45163;47.690;11.770;2023-04-06T13:05:50;5.27;;;4.20;;
59366;SDS011;45163;47.690;11.770;2023-04-06T13:08:18;5.07;;;3.60;;
59366;SDS011;45163;47.690;11.770;2023-04-06T13:10:48;6.00;;;3.77;;
59366;SDS011;45163;47.690;11.770;2023-04-06T13:13:16;5.67;;;3.70;;
59366;SDS011;45163;47.690;11.770;2023-04-06T13:15:43;4.70;;;3.93;;
59366;SDS011;45163;47.690;11.770;2023-04-06T13:18:10;6.57;;;4.17;;
59366;SDS011;45163;47.690;11.770;2023-04-06T13:20:36;4.93;;;3.70;;
59366;SDS011;45163;47.690;11.770;2023-04-06T13:23:02;4.77;;;3.73;;
59366;SDS011;45163;47.690;11.770;2023-04-06T13:25:29;4.23;;;3.83;;
59366;SDS011;45163;47.690;11.770;2023-04-06T13:27:55;5.17;;;3.47;;
59366;SDS011;45163;47.690;11.770;2023-04-06T13:30:21;4.80;;;3.60;;
59366;SDS011;45163;47.690;11.770;2023-04-06T13:32:47;5.07;;;3.83;;
59366;SDS011;45163;47.690;11.770;2023-04-06T13:35:14;4.70;;;4.03;;
59366;SDS011;45163;47.690;11.770;2023-04-06T13:37:40;4.30;;;3.90;;
59366;SDS011;45163;47.690;11.770;2023-04-06T13:40:06;4.77;;;3.27;;
59366;SDS011;45163;47.690;11.770;2023-04-06T13:42:33;5.13;;;4.37;;
59366;SDS011;45163;47.690;11.770;2023-04-06T13:45:01;5.20;;;3.87;;
59366;SDS011;45163;47.690;11.770;2023-04-06T13:47:27;4.93;;;3.63;;
59366;SDS011;45163;47.690;11.770;2023-04-06T13:49:53;4.57;;;3.93;;
59366;SDS011;45163;47.690;11.770;2023-04-06T13:52:20;5.03;;;3.90;;
59366;SDS011;45163;47.690;11.770;2023-04-06T13:54:46;4.80;;;3.87;;
59366;SDS011;45163;47.690;11.770;2023-04-06T13:57:12;4.57;;;3.70;;
59366;SDS011;45163;47.690;11.770;2023-04-06T13:59:38;4.17;;;3.77;;
59366;SDS011;45163;47.690;11.770;2023-04-06T14:02:06;5.10;;;3.77;;
59366;SDS011;45163;47.690;11.770;2023-04-06T14:04:34;5.87;;;4.00;;
59366;SDS011;45163;47.690;11.770;2023-04-06T14:07:00;4.37;;;3.50;;
59366;SDS011;45163;47.690;11.770;2023-04-06T14:09:27;4.43;;;3.97;;
59366;SDS011;45163;47.690;11.770;2023-04-06T14:11:54;7.33;;;4.37;;
59366;SDS011;45163;47.690;11.770;2023-04-06T14:14:20;5.43;;;4.33;;
59366;SDS011;45163;47.690;11.770;2023-04-06T14:16:47;5.83;;;4.80;;
59366;SDS011;45163;47.690;11.770;2023-04-06T14:19:14;6.57;;;4.70;;
59366;SDS011;45163;47.690;11.770;2023-04-06T14:21:47;5.83;;;3.80;;
59366;SDS011;45163;47.690;11.770;2023-04-06T14:24:14;4.57;;;3.87;;
59366;SDS011;45163;47.690;11.770;2023-04-06T14:26:41;7.03;;;4.23;;
59366;SDS011;45163;47.690;11.770;2023-04-06T14:29:08;6.80;;;4.27;;
59366;SDS011;45163;47.690;11.770;2023-04-06T14:31:35;8.80;;;4.73;;
59366;SDS011;45163;47.690;11.770;2023-04-06T14:34:01;4.77;;;4.07;;
59366;SDS011;45163;47.690;11.770;2023-04-06T14:36:29;5.10;;;4.27;;
59366;SDS011;45163;47.690;11.770;2023-04-06T14:39:05;5.17;;;4.37;;
59366;SDS011;45163;47.690;11.770;2023-04-06T14:41:31;4.67;;;4.00;;
59366;SDS011;45163;47.690;11.770;2023-04-06T14:43:58;8.73;;;4.20;;
59366;SDS011;45163;47.690;11.770;2023-04-06T14:46:25;6.50;;;3.87;;
59366;SDS011;45163;47.690;11.770;2023-04-06T14:48:55;4.97;;;3.80;;
59366;SDS011;45163;47.690;11.770;2023-04-06T14:51:23;5.50;;;4.00;;